Terminal Aerodrome Forecast
Issued by NWS

Home | Current Version | Previous Version | Text Only | Print | Product List | Glossary Off
Versions: 1 2 3 4 5 6 7 8 9 10 11 12 13 14 15 16 17

000
FTUS43 KTOP 270400 AAB
TAFMHK
TAF AMD
KMHK 270401Z 2704/2724 04012G22KT P6SM SCT008 OVC015
      TEMPO 2704/2705 5SM -RASN SCT008 OVC012
     FM270500 03011KT P6SM BKN008 OVC012
     FM270800 02007KT P6SM BKN015 OVC025
     FM271400 02005KT P6SM SCT035=

USA.gov is the U.S. government's official web portal to all federal, state and local government web resources and services.